Ocean Springs, Mississippi
Current Conditions -  °F | °C
As of 5:58 AM on Friday 24 Oct 2014 (Local Time) from KBIX Reporting Station
Broken Clouds Broken Clouds  
Wind Chill: 53°   Ceiling: 17000
Heat Index: 53°   Visibility: 10mi
Dew Point: 47°   Wind: 1mph
Humidity: 80%   Direction: 360°N
Pressure: 30.08"   Gusts: NA
Location:  30.42°N, 88.81°W
Report Text: KBIX 241058Z AUTO 36001KT 10SM BKN170 12/09 A3008 RMK AO2 SLP189 T01180085
Loading
Personal Weather Stations






























Interactive Weather Map
Tropical Storm Tracking
New forecast layout! Learn more

10-Day Weather Forecast

Advertisements
Track Severe Weather on mobile